sensor_id;sensor_type;location;lat;lon;timestamp;P1;durP1;ratioP1;P2;durP2;ratioP2
18532;SDS011;9396;51.510;11.934;2022-09-09T00:01:57;1.90;;;1.30;;
18532;SDS011;9396;51.510;11.934;2022-09-09T00:04:30;2.47;;;1.30;;
18532;SDS011;9396;51.510;11.934;2022-09-09T00:07:03;2.47;;;1.40;;
18532;SDS011;9396;51.510;11.934;2022-09-09T00:09:35;2.00;;;1.10;;
18532;SDS011;9396;51.510;11.934;2022-09-09T00:12:10;3.30;;;1.30;;
18532;SDS011;9396;51.510;11.934;2022-09-09T00:14:41;1.67;;;1.03;;
18532;SDS011;9396;51.510;11.934;2022-09-09T00:17:17;3.07;;;1.00;;
18532;SDS011;9396;51.510;11.934;2022-09-09T00:19:53;3.60;;;1.00;;
18532;SDS011;9396;51.510;11.934;2022-09-09T00:22:25;2.40;;;1.00;;
18532;SDS011;9396;51.510;11.934;2022-09-09T00:24:56;2.90;;;1.30;;
18532;SDS011;9396;51.510;11.934;2022-09-09T00:27:30;3.87;;;0.90;;
18532;SDS011;9396;51.510;11.934;2022-09-09T00:30:12;2.87;;;1.00;;
18532;SDS011;9396;51.510;11.934;2022-09-09T00:32:45;2.00;;;1.00;;
18532;SDS011;9396;51.510;11.934;2022-09-09T00:35:14;1.90;;;1.00;;
18532;SDS011;9396;51.510;11.934;2022-09-09T00:37:44;2.90;;;1.10;;
18532;SDS011;9396;51.510;11.934;2022-09-09T00:40:18;3.57;;;1.37;;
18532;SDS011;9396;51.510;11.934;2022-09-09T00:42:52;2.87;;;1.10;;
18532;SDS011;9396;51.510;11.934;2022-09-09T00:45:40;2.47;;;1.00;;
18532;SDS011;9396;51.510;11.934;2022-09-09T00:48:24;1.80;;;1.07;;
18532;SDS011;9396;51.510;11.934;2022-09-09T00:51:02;3.37;;;1.10;;
18532;SDS011;9396;51.510;11.934;2022-09-09T00:53:38;1.60;;;1.10;;
18532;SDS011;9396;51.510;11.934;2022-09-09T00:56:11;5.77;;;1.50;;
18532;SDS011;9396;51.510;11.934;2022-09-09T00:58:40;1.53;;;0.90;;
18532;SDS011;9396;51.510;11.934;2022-09-09T01:01:09;4.10;;;1.47;;
18532;SDS011;9396;51.510;11.934;2022-09-09T01:03:40;2.50;;;1.27;;
18532;SDS011;9396;51.510;11.934;2022-09-09T01:06:15;2.03;;;1.30;;
18532;SDS011;9396;51.510;11.934;2022-09-09T01:11:38;1.30;;;1.00;;
18532;SDS011;9396;51.510;11.934;2022-09-09T01:14:18;2.50;;;1.20;;
18532;SDS011;9396;51.510;11.934;2022-09-09T01:16:56;2.60;;;1.10;;
18532;SDS011;9396;51.510;11.934;2022-09-09T01:19:35;4.77;;;1.40;;
18532;SDS011;9396;51.510;11.934;2022-09-09T01:22:11;3.10;;;1.13;;
18532;SDS011;9396;51.510;11.934;2022-09-09T01:24:50;1.87;;;1.17;;
18532;SDS011;9396;51.510;11.934;2022-09-09T01:27:35;2.80;;;1.00;;
18532;SDS011;9396;51.510;11.934;2022-09-09T01:30:04;3.07;;;1.30;;
18532;SDS011;9396;51.510;11.934;2022-09-09T01:32:37;3.13;;;1.27;;
18532;SDS011;9396;51.510;11.934;2022-09-09T01:35:07;2.33;;;1.03;;
18532;SDS011;9396;51.510;11.934;2022-09-09T01:37:36;1.60;;;0.97;;
18532;SDS011;9396;51.510;11.934;2022-09-09T01:40:03;3.67;;;1.10;;
18532;SDS011;9396;51.510;11.934;2022-09-09T01:42:31;2.03;;;1.10;;
18532;SDS011;9396;51.510;11.934;2022-09-09T01:44:59;1.30;;;1.10;;
18532;SDS011;9396;51.510;11.934;2022-09-09T01:47:25;2.40;;;1.10;;
18532;SDS011;9396;51.510;11.934;2022-09-09T01:49:52;2.03;;;0.93;;
18532;SDS011;9396;51.510;11.934;2022-09-09T01:52:19;4.40;;;1.30;;
18532;SDS011;9396;51.510;11.934;2022-09-09T01:54:45;2.13;;;1.00;;
18532;SDS011;9396;51.510;11.934;2022-09-09T01:57:15;3.67;;;1.23;;
18532;SDS011;9396;51.510;11.934;2022-09-09T01:59:48;4.37;;;1.20;;
18532;SDS011;9396;51.510;11.934;2022-09-09T02:02:28;1.80;;;1.20;;
18532;SDS011;9396;51.510;11.934;2022-09-09T02:05:00;2.73;;;1.00;;
18532;SDS011;9396;51.510;11.934;2022-09-09T02:07:38;4.77;;;1.20;;
18532;SDS011;9396;51.510;11.934;2022-09-09T02:10:09;1.80;;;1.13;;
18532;SDS011;9396;51.510;11.934;2022-09-09T02:12:39;3.37;;;1.20;;
18532;SDS011;9396;51.510;11.934;2022-09-09T02:15:11;1.73;;;1.27;;
18532;SDS011;9396;51.510;11.934;2022-09-09T02:17:48;1.30;;;1.07;;
18532;SDS011;9396;51.510;11.934;2022-09-09T02:20:18;1.13;;;1.03;;
18532;SDS011;9396;51.510;11.934;2022-09-09T02:22:46;2.83;;;1.20;;
18532;SDS011;9396;51.510;11.934;2022-09-09T02:25:18;1.37;;;1.10;;
18532;SDS011;9396;51.510;11.934;2022-09-09T02:27:48;1.93;;;1.20;;
18532;SDS011;9396;51.510;11.934;2022-09-09T02:30:17;2.83;;;1.10;;
18532;SDS011;9396;51.510;11.934;2022-09-09T02:32:45;1.57;;;1.00;;
18532;SDS011;9396;51.510;11.934;2022-09-09T02:35:16;2.83;;;1.10;;
18532;SDS011;9396;51.510;11.934;2022-09-09T02:37:46;1.53;;;1.10;;
18532;SDS011;9396;51.510;11.934;2022-09-09T02:40:13;2.27;;;1.10;;
18532;SDS011;9396;51.510;11.934;2022-09-09T02:42:41;1.60;;;0.93;;
18532;SDS011;9396;51.510;11.934;2022-09-09T02:45:10;2.87;;;1.23;;
18532;SDS011;9396;51.510;11.934;2022-09-09T02:47:41;2.90;;;1.20;;
18532;SDS011;9396;51.510;11.934;2022-09-09T02:50:16;2.77;;;1.17;;
18532;SDS011;9396;51.510;11.934;2022-09-09T02:52:52;2.20;;;1.07;;
18532;SDS011;9396;51.510;11.934;2022-09-09T02:55:35;2.10;;;1.00;;
18532;SDS011;9396;51.510;11.934;2022-09-09T02:58:08;3.53;;;1.20;;
18532;SDS011;9396;51.510;11.934;2022-09-09T03:00:37;6.10;;;1.20;;
18532;SDS011;9396;51.510;11.934;2022-09-09T03:03:05;2.80;;;1.30;;
18532;SDS011;9396;51.510;11.934;2022-09-09T03:05:35;2.73;;;0.90;;
18532;SDS011;9396;51.510;11.934;2022-09-09T03:08:02;3.03;;;1.00;;
18532;SDS011;9396;51.510;11.934;2022-09-09T03:10:30;2.30;;;1.10;;
18532;SDS011;9396;51.510;11.934;2022-09-09T03:12:57;5.00;;;1.20;;
18532;SDS011;9396;51.510;11.934;2022-09-09T03:15:24;2.50;;;1.17;;
18532;SDS011;9396;51.510;11.934;2022-09-09T03:17:55;2.67;;;1.10;;
18532;SDS011;9396;51.510;11.934;2022-09-09T03:20:22;1.77;;;1.30;;
18532;SDS011;9396;51.510;11.934;2022-09-09T03:22:50;1.67;;;0.90;;
18532;SDS011;9396;51.510;11.934;2022-09-09T03:25:16;2.33;;;1.30;;
18532;SDS011;9396;51.510;11.934;2022-09-09T03:27:43;3.17;;;1.20;;
18532;SDS011;9396;51.510;11.934;2022-09-09T03:30:10;2.23;;;1.30;;
18532;SDS011;9396;51.510;11.934;2022-09-09T03:32:37;5.00;;;1.40;;
18532;SDS011;9396;51.510;11.934;2022-09-09T03:35:05;4.17;;;1.00;;
18532;SDS011;9396;51.510;11.934;2022-09-09T03:37:32;1.43;;;1.30;;
18532;SDS011;9396;51.510;11.934;2022-09-09T03:40:00;3.17;;;1.30;;
18532;SDS011;9396;51.510;11.934;2022-09-09T03:42:27;4.20;;;1.43;;
18532;SDS011;9396;51.510;11.934;2022-09-09T03:44:56;3.13;;;1.20;;
18532;SDS011;9396;51.510;11.934;2022-09-09T03:47:23;2.00;;;0.90;;
18532;SDS011;9396;51.510;11.934;2022-09-09T03:49:49;1.87;;;1.00;;
18532;SDS011;9396;51.510;11.934;2022-09-09T03:52:16;2.40;;;1.10;;
18532;SDS011;9396;51.510;11.934;2022-09-09T03:54:43;2.37;;;1.20;;
18532;SDS011;9396;51.510;11.934;2022-09-09T03:57:11;2.93;;;1.30;;
18532;SDS011;9396;51.510;11.934;2022-09-09T03:59:41;2.43;;;1.30;;
18532;SDS011;9396;51.510;11.934;2022-09-09T04:02:08;4.37;;;1.23;;
18532;SDS011;9396;51.510;11.934;2022-09-09T04:04:35;2.43;;;1.20;;
18532;SDS011;9396;51.510;11.934;2022-09-09T04:07:01;4.70;;;1.73;;
18532;SDS011;9396;51.510;11.934;2022-09-09T04:09:31;2.03;;;1.40;;
18532;SDS011;9396;51.510;11.934;2022-09-09T04:11:57;1.20;;;1.03;;
18532;SDS011;9396;51.510;11.934;2022-09-09T04:14:25;2.30;;;1.27;;
18532;SDS011;9396;51.510;11.934;2022-09-09T04:16:53;5.70;;;1.77;;
18532;SDS011;9396;51.510;11.934;2022-09-09T04:19:22;2.30;;;1.30;;
18532;SDS011;9396;51.510;11.934;2022-09-09T04:21:49;3.20;;;1.30;;
18532;SDS011;9396;51.510;11.934;2022-09-09T04:24:16;5.17;;;1.60;;
18532;SDS011;9396;51.510;11.934;2022-09-09T04:26:42;2.93;;;1.70;;
18532;SDS011;9396;51.510;11.934;2022-09-09T04:29:10;2.27;;;1.67;;
18532;SDS011;9396;51.510;11.934;2022-09-09T04:31:38;4.90;;;1.60;;
18532;SDS011;9396;51.510;11.934;2022-09-09T04:34:06;4.43;;;1.80;;
18532;SDS011;9396;51.510;11.934;2022-09-09T04:36:33;2.47;;;1.73;;
18532;SDS011;9396;51.510;11.934;2022-09-09T04:39:01;3.37;;;1.80;;
18532;SDS011;9396;51.510;11.934;2022-09-09T04:41:28;4.80;;;1.87;;
18532;SDS011;9396;51.510;11.934;2022-09-09T04:43:56;5.17;;;1.63;;
18532;SDS011;9396;51.510;11.934;2022-09-09T04:46:24;4.27;;;1.57;;
18532;SDS011;9396;51.510;11.934;2022-09-09T04:48:52;5.20;;;1.73;;
18532;SDS011;9396;51.510;11.934;2022-09-09T04:51:19;4.60;;;2.03;;
18532;SDS011;9396;51.510;11.934;2022-09-09T04:53:46;2.27;;;1.77;;
18532;SDS011;9396;51.510;11.934;2022-09-09T04:56:15;4.03;;;2.20;;
18532;SDS011;9396;51.510;11.934;2022-09-09T04:58:42;3.90;;;1.80;;
18532;SDS011;9396;51.510;11.934;2022-09-09T05:01:11;6.30;;;2.30;;
18532;SDS011;9396;51.510;11.934;2022-09-09T05:03:39;6.07;;;2.43;;
18532;SDS011;9396;51.510;11.934;2022-09-09T05:06:08;3.70;;;2.20;;
18532;SDS011;9396;51.510;11.934;2022-09-09T05:08:36;2.67;;;1.90;;
18532;SDS011;9396;51.510;11.934;2022-09-09T05:11:03;3.73;;;2.10;;
18532;SDS011;9396;51.510;11.934;2022-09-09T05:13:30;4.67;;;1.90;;
18532;SDS011;9396;51.510;11.934;2022-09-09T05:15:57;3.63;;;1.63;;
18532;SDS011;9396;51.510;11.934;2022-09-09T05:18:24;4.60;;;2.13;;
18532;SDS011;9396;51.510;11.934;2022-09-09T05:20:51;3.77;;;2.00;;
18532;SDS011;9396;51.510;11.934;2022-09-09T05:23:19;3.83;;;1.70;;
18532;SDS011;9396;51.510;11.934;2022-09-09T05:25:54;3.00;;;1.67;;
18532;SDS011;9396;51.510;11.934;2022-09-09T05:28:22;3.37;;;1.70;;
18532;SDS011;9396;51.510;11.934;2022-09-09T05:30:54;4.83;;;1.67;;
18532;SDS011;9396;51.510;11.934;2022-09-09T05:33:22;4.60;;;1.73;;
18532;SDS011;9396;51.510;11.934;2022-09-09T05:35:54;5.30;;;1.60;;
18532;SDS011;9396;51.510;11.934;2022-09-09T05:38:23;3.10;;;1.50;;
18532;SDS011;9396;51.510;11.934;2022-09-09T05:40:50;2.87;;;1.60;;
18532;SDS011;9396;51.510;11.934;2022-09-09T05:43:17;2.83;;;1.67;;
18532;SDS011;9396;51.510;11.934;2022-09-09T05:45:45;6.47;;;1.80;;
18532;SDS011;9396;51.510;11.934;2022-09-09T05:48:12;2.97;;;1.70;;
18532;SDS011;9396;51.510;11.934;2022-09-09T05:50:38;3.57;;;1.70;;
18532;SDS011;9396;51.510;11.934;2022-09-09T05:53:05;2.33;;;1.73;;
18532;SDS011;9396;51.510;11.934;2022-09-09T05:55:33;10.67;;;2.10;;
18532;SDS011;9396;51.510;11.934;2022-09-09T05:58:00;3.73;;;1.67;;
18532;SDS011;9396;51.510;11.934;2022-09-09T06:00:26;3.00;;;1.43;;
18532;SDS011;9396;51.510;11.934;2022-09-09T06:02:56;7.10;;;1.53;;
18532;SDS011;9396;51.510;11.934;2022-09-09T06:05:23;1.67;;;1.23;;
18532;SDS011;9396;51.510;11.934;2022-09-09T06:07:52;3.97;;;1.57;;
18532;SDS011;9396;51.510;11.934;2022-09-09T06:10:20;4.17;;;1.50;;
18532;SDS011;9396;51.510;11.934;2022-09-09T06:12:48;5.50;;;1.50;;
18532;SDS011;9396;51.510;11.934;2022-09-09T06:15:15;1.90;;;1.30;;
18532;SDS011;9396;51.510;11.934;2022-09-09T06:17:42;1.67;;;1.10;;
18532;SDS011;9396;51.510;11.934;2022-09-09T06:20:10;4.17;;;1.30;;
18532;SDS011;9396;51.510;11.934;2022-09-09T06:22:38;4.87;;;1.37;;
18532;SDS011;9396;51.510;11.934;2022-09-09T06:25:06;5.33;;;1.20;;
18532;SDS011;9396;51.510;11.934;2022-09-09T06:27:33;3.57;;;1.37;;
18532;SDS011;9396;51.510;11.934;2022-09-09T06:30:01;2.03;;;1.17;;
18532;SDS011;9396;51.510;11.934;2022-09-09T06:32:29;3.07;;;1.00;;
18532;SDS011;9396;51.510;11.934;2022-09-09T06:34:55;3.37;;;1.50;;
18532;SDS011;9396;51.510;11.934;2022-09-09T06:37:26;4.60;;;1.30;;
18532;SDS011;9396;51.510;11.934;2022-09-09T06:39:53;3.83;;;1.40;;
18532;SDS011;9396;51.510;11.934;2022-09-09T06:42:19;2.40;;;1.37;;
18532;SDS011;9396;51.510;11.934;2022-09-09T06:44:46;3.77;;;1.30;;
18532;SDS011;9396;51.510;11.934;2022-09-09T06:47:14;3.57;;;1.20;;
18532;SDS011;9396;51.510;11.934;2022-09-09T06:49:41;2.40;;;1.30;;
18532;SDS011;9396;51.510;11.934;2022-09-09T06:52:08;4.93;;;1.40;;
18532;SDS011;9396;51.510;11.934;2022-09-09T06:54:35;2.27;;;1.13;;
18532;SDS011;9396;51.510;11.934;2022-09-09T06:57:02;2.80;;;1.10;;
18532;SDS011;9396;51.510;11.934;2022-09-09T06:59:32;3.27;;;1.40;;
18532;SDS011;9396;51.510;11.934;2022-09-09T07:01:58;3.10;;;1.00;;
18532;SDS011;9396;51.510;11.934;2022-09-09T07:04:26;2.53;;;1.00;;
18532;SDS011;9396;51.510;11.934;2022-09-09T07:06:53;3.50;;;1.00;;
18532;SDS011;9396;51.510;11.934;2022-09-09T07:09:20;3.87;;;1.10;;
18532;SDS011;9396;51.510;11.934;2022-09-09T07:11:47;2.90;;;0.90;;
18532;SDS011;9396;51.510;11.934;2022-09-09T07:14:16;2.27;;;1.00;;
18532;SDS011;9396;51.510;11.934;2022-09-09T07:16:42;4.10;;;1.50;;
18532;SDS011;9396;51.510;11.934;2022-09-09T07:19:11;1.77;;;0.97;;
18532;SDS011;9396;51.510;11.934;2022-09-09T07:21:40;1.57;;;0.93;;
18532;SDS011;9396;51.510;11.934;2022-09-09T07:24:07;2.70;;;1.00;;
18532;SDS011;9396;51.510;11.934;2022-09-09T07:26:35;2.50;;;0.83;;
18532;SDS011;9396;51.510;11.934;2022-09-09T07:29:03;3.80;;;0.83;;
18532;SDS011;9396;51.510;11.934;2022-09-09T07:31:31;3.53;;;0.90;;
18532;SDS011;9396;51.510;11.934;2022-09-09T07:33:59;3.97;;;1.37;;
18532;SDS011;9396;51.510;11.934;2022-09-09T07:36:28;2.33;;;1.10;;
18532;SDS011;9396;51.510;11.934;2022-09-09T07:38:58;1.33;;;1.03;;
18532;SDS011;9396;51.510;11.934;2022-09-09T07:41:26;3.07;;;0.97;;
18532;SDS011;9396;51.510;11.934;2022-09-09T07:43:55;3.07;;;0.97;;
18532;SDS011;9396;51.510;11.934;2022-09-09T07:46:24;6.60;;;1.10;;
18532;SDS011;9396;51.510;11.934;2022-09-09T07:48:52;2.20;;;1.00;;
18532;SDS011;9396;51.510;11.934;2022-09-09T07:51:21;2.97;;;1.00;;
18532;SDS011;9396;51.510;11.934;2022-09-09T07:53:51;2.43;;;1.07;;
18532;SDS011;9396;51.510;11.934;2022-09-09T07:56:21;3.60;;;0.90;;
18532;SDS011;9396;51.510;11.934;2022-09-09T07:58:48;3.73;;;1.20;;
18532;SDS011;9396;51.510;11.934;2022-09-09T08:01:16;3.30;;;0.80;;
18532;SDS011;9396;51.510;11.934;2022-09-09T08:03:44;2.50;;;1.00;;
18532;SDS011;9396;51.510;11.934;2022-09-09T08:06:11;2.13;;;0.80;;
18532;SDS011;9396;51.510;11.934;2022-09-09T08:08:39;1.77;;;0.80;;
18532;SDS011;9396;51.510;11.934;2022-09-09T08:11:08;3.37;;;0.97;;
18532;SDS011;9396;51.510;11.934;2022-09-09T08:13:38;4.00;;;1.07;;
18532;SDS011;9396;51.510;11.934;2022-09-09T08:16:06;3.77;;;0.97;;
18532;SDS011;9396;51.510;11.934;2022-09-09T08:18:34;4.23;;;0.90;;
18532;SDS011;9396;51.510;11.934;2022-09-09T08:21:11;1.90;;;0.90;;
18532;SDS011;9396;51.510;11.934;2022-09-09T08:23:39;1.80;;;0.53;;
18532;SDS011;9396;51.510;11.934;2022-09-09T08:26:07;4.43;;;0.97;;
18532;SDS011;9396;51.510;11.934;2022-09-09T08:28:38;2.37;;;0.80;;
18532;SDS011;9396;51.510;11.934;2022-09-09T08:31:09;2.10;;;1.00;;
18532;SDS011;9396;51.510;11.934;2022-09-09T08:33:37;3.17;;;1.00;;
18532;SDS011;9396;51.510;11.934;2022-09-09T08:36:04;3.13;;;1.10;;
18532;SDS011;9396;51.510;11.934;2022-09-09T08:38:33;2.67;;;0.83;;
18532;SDS011;9396;51.510;11.934;2022-09-09T08:41:04;4.10;;;1.00;;
18532;SDS011;9396;51.510;11.934;2022-09-09T08:43:44;3.27;;;1.00;;
18532;SDS011;9396;51.510;11.934;2022-09-09T08:46:14;1.87;;;0.83;;
18532;SDS011;9396;51.510;11.934;2022-09-09T08:48:48;2.00;;;0.77;;
18532;SDS011;9396;51.510;11.934;2022-09-09T08:51:23;1.07;;;0.80;;
18532;SDS011;9396;51.510;11.934;2022-09-09T08:53:54;2.53;;;0.90;;
18532;SDS011;9396;51.510;11.934;2022-09-09T08:56:25;3.63;;;0.97;;
18532;SDS011;9396;51.510;11.934;2022-09-09T08:58:55;4.27;;;0.80;;
18532;SDS011;9396;51.510;11.934;2022-09-09T09:01:38;1.97;;;0.73;;
18532;SDS011;9396;51.510;11.934;2022-09-09T09:04:13;2.53;;;1.00;;
18532;SDS011;9396;51.510;11.934;2022-09-09T09:06:58;1.03;;;0.70;;
18532;SDS011;9396;51.510;11.934;2022-09-09T09:09:36;1.33;;;0.70;;
18532;SDS011;9396;51.510;11.934;2022-09-09T09:12:14;1.03;;;0.60;;
18532;SDS011;9396;51.510;11.934;2022-09-09T09:14:44;2.10;;;0.80;;
18532;SDS011;9396;51.510;11.934;2022-09-09T09:17:13;4.33;;;0.70;;
18532;SDS011;9396;51.510;11.934;2022-09-09T09:19:44;2.20;;;0.90;;
18532;SDS011;9396;51.510;11.934;2022-09-09T09:22:14;2.87;;;1.00;;
18532;SDS011;9396;51.510;11.934;2022-09-09T09:24:46;2.70;;;0.90;;
18532;SDS011;9396;51.510;11.934;2022-09-09T09:27:18;2.97;;;0.90;;
18532;SDS011;9396;51.510;11.934;2022-09-09T09:29:55;2.17;;;1.10;;
18532;SDS011;9396;51.510;11.934;2022-09-09T09:32:24;5.30;;;1.17;;
18532;SDS011;9396;51.510;11.934;2022-09-09T09:34:54;2.53;;;0.90;;
18532;SDS011;9396;51.510;11.934;2022-09-09T09:37:24;3.23;;;1.00;;
18532;SDS011;9396;51.510;11.934;2022-09-09T09:39:54;2.43;;;0.70;;
18532;SDS011;9396;51.510;11.934;2022-09-09T09:42:21;8.17;;;1.43;;
18532;SDS011;9396;51.510;11.934;2022-09-09T09:44:48;4.33;;;0.80;;
18532;SDS011;9396;51.510;11.934;2022-09-09T09:47:17;3.40;;;0.90;;
18532;SDS011;9396;51.510;11.934;2022-09-09T09:49:51;3.23;;;0.90;;
18532;SDS011;9396;51.510;11.934;2022-09-09T09:52:20;2.60;;;0.87;;
18532;SDS011;9396;51.510;11.934;2022-09-09T09:54:48;3.40;;;1.00;;
18532;SDS011;9396;51.510;11.934;2022-09-09T09:57:16;3.50;;;0.97;;
18532;SDS011;9396;51.510;11.934;2022-09-09T09:59:44;4.10;;;0.90;;
18532;SDS011;9396;51.510;11.934;2022-09-09T10:02:17;2.33;;;0.83;;
18532;SDS011;9396;51.510;11.934;2022-09-09T10:04:46;2.87;;;0.70;;
18532;SDS011;9396;51.510;11.934;2022-09-09T10:07:15;1.33;;;0.70;;
18532;SDS011;9396;51.510;11.934;2022-09-09T10:09:45;4.40;;;0.87;;
18532;SDS011;9396;51.510;11.934;2022-09-09T10:12:19;3.97;;;0.97;;
18532;SDS011;9396;51.510;11.934;2022-09-09T10:14:58;3.90;;;0.80;;
18532;SDS011;9396;51.510;11.934;2022-09-09T10:17:33;2.30;;;0.90;;
18532;SDS011;9396;51.510;11.934;2022-09-09T10:20:14;2.47;;;0.80;;
18532;SDS011;9396;51.510;11.934;2022-09-09T10:22:55;5.93;;;1.20;;
18532;SDS011;9396;51.510;11.934;2022-09-09T10:25:32;2.90;;;0.83;;
18532;SDS011;9396;51.510;11.934;2022-09-09T10:28:23;4.40;;;1.00;;
18532;SDS011;9396;51.510;11.934;2022-09-09T10:31:02;2.30;;;0.87;;
18532;SDS011;9396;51.510;11.934;2022-09-09T10:33:46;1.73;;;0.80;;
18532;SDS011;9396;51.510;11.934;2022-09-09T10:36:18;2.10;;;0.73;;
18532;SDS011;9396;51.510;11.934;2022-09-09T10:38:47;3.00;;;1.20;;
18532;SDS011;9396;51.510;11.934;2022-09-09T10:41:19;2.13;;;0.67;;
18532;SDS011;9396;51.510;11.934;2022-09-09T10:44:01;2.43;;;0.83;;
18532;SDS011;9396;51.510;11.934;2022-09-09T10:46:50;3.47;;;0.80;;
18532;SDS011;9396;51.510;11.934;2022-09-09T10:49:42;2.40;;;0.70;;
18532;SDS011;9396;51.510;11.934;2022-09-09T10:52:25;1.53;;;0.70;;
18532;SDS011;9396;51.510;11.934;2022-09-09T10:54:57;2.03;;;0.70;;
18532;SDS011;9396;51.510;11.934;2022-09-09T10:57:27;3.03;;;0.70;;
18532;SDS011;9396;51.510;11.934;2022-09-09T10:59:58;1.53;;;0.50;;
18532;SDS011;9396;51.510;11.934;2022-09-09T11:02:29;4.70;;;0.87;;
18532;SDS011;9396;51.510;11.934;2022-09-09T11:04:59;3.90;;;0.97;;
18532;SDS011;9396;51.510;11.934;2022-09-09T11:07:32;1.83;;;0.70;;
18532;SDS011;9396;51.510;11.934;2022-09-09T11:10:05;2.93;;;0.67;;
18532;SDS011;9396;51.510;11.934;2022-09-09T11:12:45;2.17;;;0.63;;
18532;SDS011;9396;51.510;11.934;2022-09-09T11:15:15;2.37;;;0.80;;
18532;SDS011;9396;51.510;11.934;2022-09-09T11:17:46;1.70;;;0.70;;
18532;SDS011;9396;51.510;11.934;2022-09-09T11:20:19;2.70;;;0.93;;
18532;SDS011;9396;51.510;11.934;2022-09-09T11:22:47;1.67;;;0.70;;
18532;SDS011;9396;51.510;11.934;2022-09-09T11:25:16;3.40;;;1.00;;
18532;SDS011;9396;51.510;11.934;2022-09-09T11:27:50;5.33;;;0.70;;
18532;SDS011;9396;51.510;11.934;2022-09-09T11:30:29;5.37;;;1.10;;
18532;SDS011;9396;51.510;11.934;2022-09-09T11:33:12;2.40;;;0.70;;
18532;SDS011;9396;51.510;11.934;2022-09-09T11:36:03;2.67;;;0.87;;
18532;SDS011;9396;51.510;11.934;2022-09-09T11:38:41;8.33;;;1.07;;
18532;SDS011;9396;51.510;11.934;2022-09-09T11:41:11;4.00;;;1.07;;
18532;SDS011;9396;51.510;11.934;2022-09-09T11:43:40;3.10;;;0.70;;
18532;SDS011;9396;51.510;11.934;2022-09-09T11:46:09;2.00;;;0.67;;
18532;SDS011;9396;51.510;11.934;2022-09-09T11:48:38;3.70;;;0.93;;
18532;SDS011;9396;51.510;11.934;2022-09-09T11:51:11;1.80;;;0.60;;
18532;SDS011;9396;51.510;11.934;2022-09-09T11:53:49;2.63;;;0.70;;
18532;SDS011;9396;51.510;11.934;2022-09-09T11:56:24;1.70;;;0.83;;
18532;SDS011;9396;51.510;11.934;2022-09-09T11:58:54;2.33;;;0.90;;
18532;SDS011;9396;51.510;11.934;2022-09-09T12:01:27;3.03;;;0.90;;
18532;SDS011;9396;51.510;11.934;2022-09-09T12:04:09;2.90;;;0.97;;
18532;SDS011;9396;51.510;11.934;2022-09-09T12:06:56;4.43;;;1.30;;
18532;SDS011;9396;51.510;11.934;2022-09-09T12:09:27;2.37;;;1.00;;
18532;SDS011;9396;51.510;11.934;2022-09-09T12:12:05;5.17;;;1.20;;
18532;SDS011;9396;51.510;11.934;2022-09-09T12:14:35;3.97;;;0.90;;
18532;SDS011;9396;51.510;11.934;2022-09-09T12:17:10;7.20;;;0.87;;
18532;SDS011;9396;51.510;11.934;2022-09-09T12:19:45;3.10;;;1.03;;
18532;SDS011;9396;51.510;11.934;2022-09-09T12:22:15;2.57;;;0.73;;
18532;SDS011;9396;51.510;11.934;2022-09-09T12:24:51;2.17;;;0.80;;
18532;SDS011;9396;51.510;11.934;2022-09-09T12:27:26;2.97;;;0.90;;
18532;SDS011;9396;51.510;11.934;2022-09-09T12:29:58;2.93;;;0.67;;
18532;SDS011;9396;51.510;11.934;2022-09-09T12:32:28;2.83;;;0.93;;
18532;SDS011;9396;51.510;11.934;2022-09-09T12:34:55;3.43;;;1.00;;
18532;SDS011;9396;51.510;11.934;2022-09-09T12:37:29;3.13;;;0.73;;
18532;SDS011;9396;51.510;11.934;2022-09-09T12:39:59;3.20;;;0.80;;
18532;SDS011;9396;51.510;11.934;2022-09-09T12:42:28;2.13;;;0.80;;
18532;SDS011;9396;51.510;11.934;2022-09-09T12:44:58;1.33;;;0.80;;
18532;SDS011;9396;51.510;11.934;2022-09-09T12:47:30;2.70;;;1.00;;
18532;SDS011;9396;51.510;11.934;2022-09-09T12:50:10;2.60;;;0.90;;
18532;SDS011;9396;51.510;11.934;2022-09-09T12:52:44;1.80;;;0.70;;
18532;SDS011;9396;51.510;11.934;2022-09-09T12:55:16;1.53;;;0.60;;
18532;SDS011;9396;51.510;11.934;2022-09-09T12:57:45;2.37;;;0.67;;
18532;SDS011;9396;51.510;11.934;2022-09-09T13:00:13;2.40;;;0.80;;
18532;SDS011;9396;51.510;11.934;2022-09-09T13:02:46;2.03;;;0.83;;
18532;SDS011;9396;51.510;11.934;2022-09-09T13:05:16;3.90;;;0.87;;
18532;SDS011;9396;51.510;11.934;2022-09-09T13:07:46;3.97;;;0.90;;
18532;SDS011;9396;51.510;11.934;2022-09-09T13:10:14;2.77;;;0.60;;
18532;SDS011;9396;51.510;11.934;2022-09-09T13:12:45;1.47;;;0.50;;
18532;SDS011;9396;51.510;11.934;2022-09-09T13:15:14;3.07;;;0.70;;
18532;SDS011;9396;51.510;11.934;2022-09-09T13:17:57;2.30;;;0.67;;
18532;SDS011;9396;51.510;11.934;2022-09-09T13:20:26;1.83;;;0.70;;
18532;SDS011;9396;51.510;11.934;2022-09-09T13:22:54;2.43;;;0.70;;
18532;SDS011;9396;51.510;11.934;2022-09-09T13:25:23;2.67;;;0.67;;
18532;SDS011;9396;51.510;11.934;2022-09-09T13:27:53;2.50;;;0.70;;
18532;SDS011;9396;51.510;11.934;2022-09-09T13:30:25;1.50;;;0.70;;
18532;SDS011;9396;51.510;11.934;2022-09-09T13:33:19;0.90;;;0.50;;
18532;SDS011;9396;51.510;11.934;2022-09-09T13:35:49;4.17;;;0.73;;
18532;SDS011;9396;51.510;11.934;2022-09-09T13:38:19;2.60;;;0.73;;
18532;SDS011;9396;51.510;11.934;2022-09-09T13:40:53;3.27;;;0.53;;
18532;SDS011;9396;51.510;11.934;2022-09-09T13:43:23;1.13;;;0.60;;
18532;SDS011;9396;51.510;11.934;2022-09-09T13:45:55;1.43;;;0.70;;
18532;SDS011;9396;51.510;11.934;2022-09-09T13:48:23;1.33;;;0.70;;
18532;SDS011;9396;51.510;11.934;2022-09-09T13:50:54;2.30;;;0.67;;
18532;SDS011;9396;51.510;11.934;2022-09-09T13:53:23;2.43;;;0.63;;
18532;SDS011;9396;51.510;11.934;2022-09-09T13:55:50;1.87;;;0.70;;
18532;SDS011;9396;51.510;11.934;2022-09-09T13:58:17;3.10;;;0.80;;
18532;SDS011;9396;51.510;11.934;2022-09-09T14:00:45;2.23;;;0.70;;
18532;SDS011;9396;51.510;11.934;2022-09-09T14:03:12;1.30;;;0.40;;
18532;SDS011;9396;51.510;11.934;2022-09-09T14:05:39;3.40;;;1.00;;
18532;SDS011;9396;51.510;11.934;2022-09-09T14:08:07;0.83;;;0.63;;
18532;SDS011;9396;51.510;11.934;2022-09-09T14:10:42;3.67;;;1.20;;
18532;SDS011;9396;51.510;11.934;2022-09-09T14:13:09;2.73;;;0.40;;
18532;SDS011;9396;51.510;11.934;2022-09-09T14:15:37;4.13;;;1.00;;
18532;SDS011;9396;51.510;11.934;2022-09-09T14:18:04;3.77;;;0.90;;
18532;SDS011;9396;51.510;11.934;2022-09-09T14:20:30;2.90;;;0.80;;
18532;SDS011;9396;51.510;11.934;2022-09-09T14:22:57;2.93;;;0.80;;
18532;SDS011;9396;51.510;11.934;2022-09-09T14:25:24;4.83;;;0.73;;
18532;SDS011;9396;51.510;11.934;2022-09-09T14:27:52;3.37;;;1.07;;
18532;SDS011;9396;51.510;11.934;2022-09-09T14:30:18;1.27;;;0.70;;
18532;SDS011;9396;51.510;11.934;2022-09-09T14:32:45;1.60;;;0.50;;
18532;SDS011;9396;51.510;11.934;2022-09-09T14:35:12;1.40;;;0.47;;
18532;SDS011;9396;51.510;11.934;2022-09-09T14:37:38;1.70;;;0.73;;
18532;SDS011;9396;51.510;11.934;2022-09-09T14:40:05;1.87;;;0.60;;
18532;SDS011;9396;51.510;11.934;2022-09-09T14:42:33;1.80;;;0.80;;
18532;SDS011;9396;51.510;11.934;2022-09-09T14:45:01;2.43;;;0.43;;
18532;SDS011;9396;51.510;11.934;2022-09-09T14:47:28;2.30;;;1.07;;
18532;SDS011;9396;51.510;11.934;2022-09-09T14:49:55;2.10;;;0.50;;
18532;SDS011;9396;51.510;11.934;2022-09-09T14:52:22;3.43;;;0.60;;
18532;SDS011;9396;51.510;11.934;2022-09-09T14:54:48;1.87;;;0.50;;
18532;SDS011;9396;51.510;11.934;2022-09-09T14:57:15;1.50;;;0.47;;
18532;SDS011;9396;51.510;11.934;2022-09-09T14:59:41;0.77;;;0.43;;
18532;SDS011;9396;51.510;11.934;2022-09-09T15:02:09;1.33;;;0.50;;
18532;SDS011;9396;51.510;11.934;2022-09-09T15:04:38;1.73;;;0.67;;
18532;SDS011;9396;51.510;11.934;2022-09-09T15:07:05;3.27;;;0.30;;
18532;SDS011;9396;51.510;11.934;2022-09-09T15:09:32;1.43;;;0.40;;
18532;SDS011;9396;51.510;11.934;2022-09-09T15:11:58;4.30;;;0.60;;